Time;durP1;ratioP1;P1;durP2;ratioP2;P2;SDS_P1;SDS_P2;PMS_P1;PMS_P2;Temp;Humidity;BMP_temperature;BMP_pressure;BME280_temperature;BME280_humidity;BME280_pressure;Samples;Min_cycle;Max_cycle;Signal;HPM_P1;HPM_P2
2021/12/05 00:21:55;;;;;;;34.17;10.88;;;;;;;;;;5014977;28;92699;-71
2021/12/05 00:24:25;;;;;;;33.75;10.73;;;;;;;;;;5002371;28;92448;-71
2021/12/05 00:26:57;;;;;;;38.05;11.20;;;;;;;;;;4990228;28;95363;-72
2021/12/05 00:29:30;;;;;;;35.45;10.52;;;;;;;;;;4992114;28;95094;-72
2021/12/05 00:32:03;;;;;;;;;;;;;;;;;;4992329;28;92491;-73
2021/12/05 00:43:16;;;;;;;38.88;9.93;;;;;;;;;;5012582;28;93211;-71
2021/12/05 00:48:40;;;;;;;31.00;9.07;;;;;;;;;;5012961;28;93410;-72
2021/12/05 00:57:06;;;;;;;21.63;8.73;;;;;;;;;;4983226;28;95813;-72
2021/12/05 01:10:29;;;;;;;25.63;6.82;;;;;;;;;;5012958;28;93905;-72
2021/12/05 01:13:27;;;;;;;30.15;8.70;;;;;;;;;;5012943;28;92339;-71
2021/12/05 01:15:52;;;;;;;16.00;6.20;;;;;;;;;;5009756;28;92554;-71
2021/12/05 01:18:19;;;;;;;19.08;7.05;;;;;;;;;;5012424;28;93105;-71
2021/12/05 01:20:53;;;;;;;17.45;6.30;;;;;;;;;;5011537;28;97432;-71
2021/12/05 01:23:30;;;;;;;21.92;6.25;;;;;;;;;;5012936;28;92948;-71
2021/12/05 01:31:18;;;;;;;24.23;6.05;;;;;;;;;;5017835;28;92526;-71
2021/12/05 01:33:56;;;;;;;23.27;6.22;;;;;;;;;;5014431;28;95645;-71
2021/12/05 01:42:07;;;;;;;25.13;6.50;;;;;;;;;;4995503;28;93306;-70
2021/12/05 01:47:23;;;;;;;19.80;5.80;;;;;;;;;;4992985;28;95612;-70
2021/12/05 01:52:29;;;;;;;13.32;6.07;;;;;;;;;;5002284;28;93205;-71
2021/12/05 02:11:27;;;;;;;14.90;5.78;;;;;;;;;;4993200;28;94667;-72
2021/12/05 02:29:31;;;;;;;21.50;5.43;;;;;;;;;;4994524;28;95781;-71
2021/12/05 02:41:56;;;;;;;15.40;4.75;;;;;;;;;;4993288;28;96163;-72
2021/12/05 02:44:25;;;;;;;19.92;4.85;;;;;;;;;;5015430;28;92560;-72
2021/12/05 02:47:02;;;;;;;19.67;4.90;;;;;;;;;;5011429;28;96274;-72
2021/12/05 02:49:31;;;;;;;17.23;5.70;;;;;;;;;;5012215;28;92505;-72
2021/12/05 02:52:02;;;;;;;17.27;5.45;;;;;;;;;;5012455;28;94902;-72
2021/12/05 02:54:37;;;;;;;16.23;5.28;;;;;;;;;;5012727;28;92843;-72
2021/12/05 02:57:06;;;;;;;13.48;5.07;;;;;;;;;;5008937;28;92403;-71
2021/12/05 03:02:10;;;;;;;21.95;5.10;;;;;;;;;;4992261;28;96022;-72
2021/12/05 03:04:40;;;;;;;18.92;4.47;;;;;;;;;;4991307;28;92738;-71
2021/12/05 03:07:08;;;;;;;16.27;5.13;;;;;;;;;;4994292;28;94904;-71
2021/12/05 03:09:35;;;;;;;15.10;4.65;;;;;;;;;;4991861;28;92479;-72
2021/12/05 03:12:03;;;;;;;16.48;4.93;;;;;;;;;;5015091;28;93265;-71
2021/12/05 03:14:30;;;;;;;25.05;4.68;;;;;;;;;;5009912;28;96130;-71
2021/12/05 03:16:56;;;;;;;16.48;5.05;;;;;;;;;;4973710;28;1097853;-71
2021/12/05 03:19:23;;;;;;;21.98;6.18;;;;;;;;;;5012990;28;95117;-71
2021/12/05 03:21:50;;;;;;;16.10;5.32;;;;;;;;;;5013646;28;93109;-71
2021/12/05 03:24:20;;;;;;;21.48;4.45;;;;;;;;;;5013019;28;91859;-71
2021/12/05 03:26:50;;;;;;;18.77;4.90;;;;;;;;;;5016444;28;93463;-71
2021/12/05 03:29:19;;;;;;;20.50;5.05;;;;;;;;;;5012065;28;93052;-71
2021/12/05 03:31:47;;;;;;;17.80;4.35;;;;;;;;;;5011368;28;94900;-71
2021/12/05 03:34:18;;;;;;;18.30;4.80;;;;;;;;;;5012337;28;95609;-71
2021/12/05 03:36:49;;;;;;;19.67;5.03;;;;;;;;;;5011954;28;92601;-71
2021/12/05 03:39:17;;;;;;;26.02;4.95;;;;;;;;;;5012623;28;95706;-71
2021/12/05 03:41:44;;;;;;;20.70;4.60;;;;;;;;;;5008617;28;95349;-71
2021/12/05 03:44:12;;;;;;;16.75;4.50;;;;;;;;;;4991830;28;92573;-71
2021/12/05 03:46:39;;;;;;;18.50;3.72;;;;;;;;;;5026380;28;95366;-72
2021/12/05 03:49:10;;;;;;;13.70;3.80;;;;;;;;;;4995495;28;92367;-72
2021/12/05 03:51:44;;;;;;;18.58;4.60;;;;;;;;;;4993947;28;93377;-72
2021/12/05 03:54:11;;;;;;;22.27;4.73;;;;;;;;;;4992292;28;95872;-72
2021/12/05 03:56:38;;;;;;;16.60;3.63;;;;;;;;;;4991644;28;94789;-72
2021/12/05 03:59:05;;;;;;;15.25;5.35;;;;;;;;;;4992427;28;98552;-72
2021/12/05 04:01:32;;;;;;;14.20;4.25;;;;;;;;;;4991927;28;94135;-72
2021/12/05 04:03:59;;;;;;;14.45;3.58;;;;;;;;;;4991555;28;92955;-72
2021/12/05 04:06:27;;;;;;;34.10;6.60;;;;;;;;;;4993321;28;93476;-72
2021/12/05 04:08:55;;;;;;;15.52;4.75;;;;;;;;;;4992290;28;96245;-72
2021/12/05 04:11:29;;;;;;;13.48;4.50;;;;;;;;;;4998928;28;92499;-72
2021/12/05 04:13:56;;;;;;;16.52;4.40;;;;;;;;;;5012363;28;94279;-71
2021/12/05 04:16:24;;;;;;;19.60;4.20;;;;;;;;;;5011426;28;92525;-71
2021/12/05 04:18:52;;;;;;;21.48;4.78;;;;;;;;;;5011492;28;95399;-71
2021/12/05 04:21:19;;;;;;;11.93;4.10;;;;;;;;;;5010184;28;99332;-72
2021/12/05 04:23:46;;;;;;;28.52;5.43;;;;;;;;;;5008948;28;92507;-72
2021/12/05 04:26:16;;;;;;;15.27;4.72;;;;;;;;;;4992772;28;93720;-72
2021/12/05 04:28:43;;;;;;;15.25;4.30;;;;;;;;;;5009153;28;95676;-71
2021/12/05 04:31:10;;;;;;;8.60;4.00;;;;;;;;;;5010896;28;92636;-71
2021/12/05 04:33:38;;;;;;;15.68;5.18;;;;;;;;;;5014451;28;93662;-71
2021/12/05 04:36:06;;;;;;;20.98;5.18;;;;;;;;;;5011648;28;92539;-71
2021/12/05 04:38:33;;;;;;;13.68;4.95;;;;;;;;;;5011387;28;93234;-71
2021/12/05 04:40:59;;;;;;;12.73;5.13;;;;;;;;;;5011587;28;95331;-71
2021/12/05 04:43:26;;;;;;;14.77;4.82;;;;;;;;;;4994188;28;92881;-71
2021/12/05 04:45:52;;;;;;;10.85;5.80;;;;;;;;;;4989434;28;95473;-71
2021/12/05 04:48:20;;;;;;;9.02;4.55;;;;;;;;;;4991440;28;94880;-71
2021/12/05 04:50:47;;;;;;;19.92;4.88;;;;;;;;;;4991586;28;92521;-71
2021/12/05 04:53:14;;;;;;;23.05;6.55;;;;;;;;;;4991011;28;95496;-71
2021/12/05 04:55:40;;;;;;;13.20;5.20;;;;;;;;;;4995903;28;93229;-71
2021/12/05 04:58:12;;;;;;;14.50;4.82;;;;;;;;;;4988283;28;95586;-71
2021/12/05 05:00:41;;;;;;;16.08;5.35;;;;;;;;;;4986570;28;96009;-71
2021/12/05 05:03:08;;;;;;;19.23;4.22;;;;;;;;;;4973422;28;91822;-71
2021/12/05 05:05:35;;;;;;;13.70;4.97;;;;;;;;;;4972869;28;93463;-71
2021/12/05 05:08:02;;;;;;;12.23;4.82;;;;;;;;;;4971994;28;94084;-71
2021/12/05 05:10:30;;;;;;;17.73;5.10;;;;;;;;;;4971739;28;94851;-71
2021/12/05 05:12:57;;;;;;;16.08;5.10;;;;;;;;;;5012194;28;96788;-71
2021/12/05 05:15:27;;;;;;;15.27;5.63;;;;;;;;;;5011376;28;94445;-72
2021/12/05 05:17:54;;;;;;;9.13;4.95;;;;;;;;;;5015711;28;92981;-72
2021/12/05 05:20:27;;;;;;;10.60;4.50;;;;;;;;;;5011395;28;94613;-71
2021/12/05 05:26:27;;;;;;;9.57;4.35;;;;;;;;;;5008339;28;93908;-71
2021/12/05 05:28:59;;;;;;;20.55;6.43;;;;;;;;;;4991834;28;93408;-71
2021/12/05 05:39:40;;;;;;;12.30;5.57;;;;;;;;;;4995375;28;92536;-71
2021/12/05 05:42:38;;;;;;;9.77;5.25;;;;;;;;;;5009515;28;94182;-71
2021/12/05 05:48:26;;;;;;;21.48;6.50;;;;;;;;;;4989173;28;92578;-71
2021/12/05 05:50:50;;;;;;;14.00;5.97;;;;;;;;;;5011963;28;93234;-71
2021/12/05 05:53:17;;;;;;;12.82;5.78;;;;;;;;;;5011831;28;92479;-71
2021/12/05 05:55:44;;;;;;;14.77;6.15;;;;;;;;;;5002973;28;92718;-71
2021/12/05 05:58:14;;;;;;;11.68;5.93;;;;;;;;;;4991902;28;94105;-71
2021/12/05 06:00:53;;;;;;;18.75;6.32;;;;;;;;;;4991920;28;92501;-71
2021/12/05 06:03:22;;;;;;;14.88;5.90;;;;;;;;;;4992611;28;95282;-72
2021/12/05 06:05:51;;;;;;;16.95;6.22;;;;;;;;;;4992898;28;92425;-72
2021/12/05 06:08:19;;;;;;;13.63;6.05;;;;;;;;;;4995072;28;94124;-71
2021/12/05 06:10:46;;;;;;;16.75;7.03;;;;;;;;;;4995263;28;93510;-71
2021/12/05 06:13:14;;;;;;;16.13;6.47;;;;;;;;;;4995418;28;93017;-71
2021/12/05 06:15:41;;;;;;;15.45;7.03;;;;;;;;;;4994646;28;94054;-71
2021/12/05 06:18:07;;;;;;;14.00;6.60;;;;;;;;;;4994666;28;94230;-72
2021/12/05 06:20:34;;;;;;;9.15;5.68;;;;;;;;;;4995444;28;91885;-71
2021/12/05 06:23:00;;;;;;;15.05;6.57;;;;;;;;;;4995280;28;93212;-71
2021/12/05 06:25:28;;;;;;;11.52;7.30;;;;;;;;;;4997176;28;94438;-71
2021/12/05 06:27:58;;;;;;;13.13;6.75;;;;;;;;;;4993615;28;94826;-72
2021/12/05 06:30:37;;;;;;;14.13;7.28;;;;;;;;;;4995218;28;93487;-72
2021/12/05 06:46:18;;;;;;;13.70;7.07;;;;;;;;;;5015016;28;92836;-71
2021/12/05 06:48:49;;;;;;;13.32;7.28;;;;;;;;;;5018191;28;92554;-71
2021/12/05 06:51:20;;;;;;;18.25;8.48;;;;;;;;;;5014645;28;93102;-72
2021/12/05 06:53:47;;;;;;;17.13;8.45;;;;;;;;;;5012682;28;95630;-71
2021/12/05 06:56:14;;;;;;;12.85;7.05;;;;;;;;;;5014639;28;96416;-72
2021/12/05 06:58:40;;;;;;;18.05;7.85;;;;;;;;;;5013979;28;93484;-72
2021/12/05 07:01:08;;;;;;;13.07;7.45;;;;;;;;;;5005522;28;92703;-72
2021/12/05 07:03:37;;;;;;;10.75;7.22;;;;;;;;;;4975161;28;92986;-71
2021/12/05 07:06:10;;;;;;;11.32;8.07;;;;;;;;;;4983271;28;93710;-72
2021/12/05 07:08:39;;;;;;;13.95;7.95;;;;;;;;;;4994543;28;92452;-71
2021/12/05 07:14:43;;;;;;;17.67;8.43;;;;;;;;;;4993568;28;93233;-72
2021/12/05 07:19:36;;;;;;;12.38;7.88;;;;;;;;;;4991890;28;97141;-71
2021/12/05 07:22:16;;;;;;;19.00;9.05;;;;;;;;;;4993791;28;92930;-71
2021/12/05 07:24:48;;;;;;;16.92;8.93;;;;;;;;;;4994334;28;94213;-70
2021/12/05 07:41:14;;;;;;;12.85;9.82;;;;;;;;;;4993177;28;94090;-71
2021/12/05 07:43:40;;;;;;;12.52;9.45;;;;;;;;;;4994110;28;92482;-71
2021/12/05 07:46:07;;;;;;;13.80;8.32;;;;;;;;;;4998510;28;95365;-72
2021/12/05 07:48:36;;;;;;;13.48;8.48;;;;;;;;;;5012535;28;93558;-71
2021/12/05 07:53:51;;;;;;;11.85;9.00;;;;;;;;;;5013985;28;94083;-72
2021/12/05 07:56:35;;;;;;;12.75;8.48;;;;;;;;;;5015537;28;93588;-72
2021/12/05 07:59:15;;;;;;;10.10;8.75;;;;;;;;;;5013942;28;93597;-72
2021/12/05 08:15:31;;;;;;;10.68;8.48;;;;;;;;;;4993271;28;95455;-72
2021/12/05 08:17:58;;;;;;;13.13;9.50;;;;;;;;;;4992617;28;94339;-72
2021/12/05 08:20:29;;;;;;;11.15;9.50;;;;;;;;;;4997125;28;92614;-72
2021/12/05 08:22:55;;;;;;;11.85;9.30;;;;;;;;;;5001771;28;94878;-72
2021/12/05 08:25:25;;;;;;;11.32;9.98;;;;;;;;;;4973949;28;92961;-72
2021/12/05 08:27:56;;;;;;;11.07;9.98;;;;;;;;;;4998517;28;94635;-71
2021/12/05 08:30:32;;;;;;;11.93;10.10;;;;;;;;;;4993577;28;94912;-71
2021/12/05 09:21:35;;;;;;;10.50;9.40;;;;;;;;;;4999204;28;93490;-72
2021/12/05 10:07:59;;;;;;;14.90;11.25;;;;;;;;;;4990239;28;93005;-72
2021/12/05 10:10:49;;;;;;;14.75;11.70;;;;;;;;;;4989116;28;97449;-71
2021/12/05 10:13:24;;;;;;;12.55;11.50;;;;;;;;;;4996546;28;94255;-72
2021/12/05 10:37:53;;;;;;;12.98;11.63;;;;;;;;;;4991756;28;92569;-72
2021/12/05 10:40:23;;;;;;;14.02;10.82;;;;;;;;;;4976307;28;93788;-72
2021/12/05 10:42:51;;;;;;;12.32;11.07;;;;;;;;;;4997414;28;94476;-72
2021/12/05 10:45:36;;;;;;;13.02;10.55;;;;;;;;;;4993249;28;93497;-72
2021/12/05 10:48:06;;;;;;;12.60;11.30;;;;;;;;;;5007203;28;93999;-72
2021/12/05 10:50:43;;;;;;;12.43;11.18;;;;;;;;;;5011697;28;92436;-72
2021/12/05 10:53:36;;;;;;;19.42;11.38;;;;;;;;;;4998954;28;96001;-73
2021/12/05 10:56:13;;;;;;;11.82;10.73;;;;;;;;;;4987830;28;96481;-72
2021/12/05 10:58:45;;;;;;;12.40;11.18;;;;;;;;;;4993360;28;92782;-71
2021/12/05 11:01:12;;;;;;;12.93;11.73;;;;;;;;;;4993699;28;93234;-71
2021/12/05 11:03:38;;;;;;;12.73;11.52;;;;;;;;;;4993775;28;94346;-71
2021/12/05 11:06:23;;;;;;;13.48;12.00;;;;;;;;;;4996544;28;92443;-71
2021/12/05 11:08:54;;;;;;;14.55;13.10;;;;;;;;;;4993913;28;93445;-71
2021/12/05 11:11:21;;;;;;;14.57;13.00;;;;;;;;;;4993691;28;91757;-72
2021/12/05 11:13:47;;;;;;;13.82;12.43;;;;;;;;;;4993001;28;93311;-71
2021/12/05 11:16:32;;;;;;;14.23;12.45;;;;;;;;;;4993035;28;93578;-72
2021/12/05 11:18:59;;;;;;;14.25;12.68;;;;;;;;;;4991748;28;95369;-72
2021/12/05 11:21:30;;;;;;;14.70;13.32;;;;;;;;;;4993285;28;96488;-72
2021/12/05 11:24:04;;;;;;;15.07;13.55;;;;;;;;;;4982226;28;94641;-72
2021/12/05 11:26:31;;;;;;;15.00;13.35;;;;;;;;;;4992006;28;92435;-72
2021/12/05 11:28:57;;;;;;;19.17;12.63;;;;;;;;;;4996202;28;94008;-72
2021/12/05 11:31:28;;;;;;;15.18;13.43;;;;;;;;;;4992695;28;93250;-72
2021/12/05 11:33:56;;;;;;;17.92;13.35;;;;;;;;;;4992232;28;93279;-72
2021/12/05 11:36:23;;;;;;;15.25;13.63;;;;;;;;;;4993401;28;92785;-72
2021/12/05 11:38:49;;;;;;;14.98;13.38;;;;;;;;;;4993494;28;92811;-72
2021/12/05 11:41:22;;;;;;;14.95;13.55;;;;;;;;;;4989649;28;95047;-71
2021/12/05 11:43:56;;;;;;;16.85;15.05;;;;;;;;;;4991639;28;96616;-72
2021/12/05 11:46:31;;;;;;;14.73;13.30;;;;;;;;;;4987552;28;92505;-72
2021/12/05 11:49:02;;;;;;;13.30;12.00;;;;;;;;;;4991980;28;94423;-72
2021/12/05 11:51:31;;;;;;;15.82;13.98;;;;;;;;;;4993371;28;94221;-72
2021/12/05 11:54:03;;;;;;;15.73;12.48;;;;;;;;;;4997800;27;93066;-72
2021/12/05 11:56:29;;;;;;;12.38;11.38;;;;;;;;;;4990762;28;93859;-73
2021/12/05 11:59:01;;;;;;;13.35;12.20;;;;;;;;;;4984991;28;92875;-72
2021/12/05 12:01:40;;;;;;;14.13;12.73;;;;;;;;;;4987422;28;93862;-73
2021/12/05 12:04:08;;;;;;;14.45;12.73;;;;;;;;;;4989087;28;93202;-72
2021/12/05 12:06:35;;;;;;;13.95;12.73;;;;;;;;;;4987537;28;94222;-73
2021/12/05 12:09:01;;;;;;;13.93;12.73;;;;;;;;;;4992998;28;95474;-73
2021/12/05 12:11:28;;;;;;;13.85;12.45;;;;;;;;;;5002045;28;94240;-71
2021/12/05 12:13:54;;;;;;;13.20;11.98;;;;;;;;;;5004441;28;93905;-72
2021/12/05 12:16:21;;;;;;;12.27;11.23;;;;;;;;;;4990219;28;94306;-72
2021/12/05 12:18:50;;;;;;;14.65;13.02;;;;;;;;;;4991577;28;93607;-71
2021/12/05 12:21:19;;;;;;;13.18;11.82;;;;;;;;;;5004332;28;94303;-72
2021/12/05 12:23:50;;;;;;;13.90;12.50;;;;;;;;;;5007847;28;93169;-72
2021/12/05 12:26:17;;;;;;;14.07;12.77;;;;;;;;;;5010451;28;92187;-72
2021/12/05 12:28:43;;;;;;;14.40;12.88;;;;;;;;;;5007753;28;93767;-71
2021/12/05 12:31:20;;;;;;;12.80;11.45;;;;;;;;;;5011843;28;94240;-72
2021/12/05 12:33:47;;;;;;;13.25;11.85;;;;;;;;;;5001102;28;94951;-72
2021/12/05 12:36:13;;;;;;;13.38;12.18;;;;;;;;;;5012218;28;94633;-71
2021/12/05 12:38:41;;;;;;;14.07;12.52;;;;;;;;;;5009047;28;93131;-72
2021/12/05 12:41:14;;;;;;;13.38;12.10;;;;;;;;;;5012525;28;93795;-72
2021/12/05 12:43:42;;;;;;;14.40;12.95;;;;;;;;;;5007068;28;94012;-71
2021/12/05 12:46:15;;;;;;;13.80;12.48;;;;;;;;;;5012657;28;92539;-70
2021/12/05 12:48:41;;;;;;;;;;;;;;;;;;4995893;28;93978;-71
2021/12/05 12:51:08;;;;;;;11.00;9.25;;;;;;;;;;5002787;28;127326;-73
2021/12/05 12:53:38;;;;;;;21.58;8.95;;;;;;;;;;5012954;28;92505;-71
2021/12/05 12:56:10;;;;;;;11.45;10.45;;;;;;;;;;5013729;28;94069;-71
2021/12/05 12:58:42;;;;;;;12.48;11.25;;;;;;;;;;5000538;28;94890;-71
2021/12/05 13:01:39;;;;;;;11.85;10.75;;;;;;;;;;4991405;28;96439;-72
2021/12/05 13:12:32;;;;;;;12.40;11.15;;;;;;;;;;4989894;28;94990;-71
2021/12/05 13:15:03;;;;;;;12.50;10.18;;;;;;;;;;4997878;28;92928;-71
2021/12/05 13:17:37;;;;;;;13.32;11.93;;;;;;;;;;5015037;28;93613;-72
2021/12/05 13:20:04;;;;;;;12.23;11.23;;;;;;;;;;5006746;28;94146;-71
2021/12/05 13:22:30;;;;;;;13.35;12.00;;;;;;;;;;4985154;28;94079;-72
2021/12/05 13:25:06;;;;;;;22.88;20.48;;;;;;;;;;5011184;28;96764;-72
2021/12/05 13:27:35;;;;;;;14.05;12.85;;;;;;;;;;5004170;28;92730;-72
2021/12/05 13:30:01;;;;;;;12.68;11.48;;;;;;;;;;4985993;28;93298;-72
2021/12/05 13:32:29;;;;;;;11.95;10.82;;;;;;;;;;4983866;28;94331;-71
2021/12/05 13:35:00;;;;;;;11.13;10.13;;;;;;;;;;4976756;28;93846;-71
2021/12/05 13:37:28;;;;;;;11.20;10.40;;;;;;;;;;4978409;28;94164;-71
2021/12/05 13:40:16;;;;;;;12.13;11.00;;;;;;;;;;4974555;28;94431;-71
2021/12/05 13:42:46;;;;;;;12.18;10.27;;;;;;;;;;4978810;28;91724;-72
2021/12/05 13:45:21;;;;;;;13.63;11.82;;;;;;;;;;4975778;28;92455;-71
2021/12/05 13:47:53;;;;;;;11.07;10.07;;;;;;;;;;4975631;28;92653;-72
2021/12/05 13:50:23;;;;;;;11.82;10.32;;;;;;;;;;4982264;28;94854;-71
2021/12/05 13:52:58;;;;;;;12.20;11.00;;;;;;;;;;4983561;28;93555;-72
2021/12/05 13:55:35;;;;;;;11.60;10.50;;;;;;;;;;4976654;28;92486;-72
2021/12/05 13:58:21;;;;;;;12.68;10.98;;;;;;;;;;4975414;28;93318;-72
2021/12/05 14:00:56;;;;;;;13.80;12.13;;;;;;;;;;4974503;28;93192;-71
2021/12/05 14:03:41;;;;;;;12.18;11.18;;;;;;;;;;4974676;28;93082;-71
2021/12/05 14:06:27;;;;;;;17.05;13.70;;;;;;;;;;4995787;28;94445;-71
2021/12/05 14:09:15;;;;;;;13.40;12.05;;;;;;;;;;4994605;27;91721;-71
2021/12/05 14:11:55;;;;;;;12.10;10.90;;;;;;;;;;4973153;28;92539;-72
2021/12/05 14:14:24;;;;;;;10.77;9.77;;;;;;;;;;4994250;28;93444;-71
2021/12/05 14:16:52;;;;;;;11.93;10.93;;;;;;;;;;4992369;28;94904;-71
2021/12/05 14:19:21;;;;;;;11.82;10.63;;;;;;;;;;4993950;28;95436;-71
2021/12/05 14:21:49;;;;;;;11.45;10.52;;;;;;;;;;4994295;28;93719;-71
2021/12/05 14:24:17;;;;;;;10.90;9.73;;;;;;;;;;4994217;28;93028;-71
2021/12/05 14:26:45;;;;;;;12.93;11.65;;;;;;;;;;4989402;28;94125;-71
2021/12/05 14:29:18;;;;;;;12.38;11.07;;;;;;;;;;4973847;28;92872;-72
2021/12/05 14:31:46;;;;;;;11.65;10.55;;;;;;;;;;4974430;28;94727;-72
2021/12/05 14:34:15;;;;;;;11.57;10.65;;;;;;;;;;4976118;28;93298;-72
2021/12/05 14:36:44;;;;;;;11.50;10.50;;;;;;;;;;4992424;28;92525;-71
2021/12/05 14:39:10;;;;;;;11.35;10.25;;;;;;;;;;4992077;28;94053;-72
2021/12/05 14:41:37;;;;;;;12.55;11.43;;;;;;;;;;5007093;28;96850;-72
2021/12/05 14:44:04;;;;;;;10.63;9.77;;;;;;;;;;4987278;28;93708;-71
2021/12/05 14:46:31;;;;;;;11.15;10.15;;;;;;;;;;4990831;28;94056;-72
2021/12/05 14:48:59;;;;;;;12.40;11.25;;;;;;;;;;4994161;28;93962;-72
2021/12/05 14:51:36;;;;;;;11.25;10.25;;;;;;;;;;4985542;28;94334;-72
2021/12/05 14:54:04;;;;;;;10.05;9.18;;;;;;;;;;4998425;28;94232;-73
2021/12/05 14:56:32;;;;;;;10.45;9.65;;;;;;;;;;5005164;28;92539;-71
2021/12/05 14:59:04;;;;;;;11.15;10.27;;;;;;;;;;5010803;28;94431;-70
2021/12/05 15:01:30;;;;;;;10.77;9.77;;;;;;;;;;5000899;28;92827;-72
2021/12/05 15:03:57;;;;;;;10.55;9.07;;;;;;;;;;5014112;28;93396;-72
2021/12/05 15:06:29;;;;;;;12.20;10.48;;;;;;;;;;4985415;28;96163;-71
2021/12/05 15:08:56;;;;;;;11.05;10.15;;;;;;;;;;4982764;28;93494;-71
2021/12/05 15:11:22;;;;;;;11.52;10.63;;;;;;;;;;4996897;28;93032;-77
2021/12/05 15:13:49;;;;;;;12.30;11.15;;;;;;;;;;5000181;28;94822;-74
2021/12/05 15:16:15;;;;;;;163.23;65.28;;;;;;;;;;4978222;28;92530;-73
2021/12/05 15:18:41;;;;;;;110.82;60.20;;;;;;;;;;5004559;28;94283;-73
2021/12/05 15:21:11;;;;;;;20.95;16.40;;;;;;;;;;5000340;28;95488;-73
2021/12/05 15:23:43;;;;;;;16.10;14.45;;;;;;;;;;4999638;28;92707;-72
2021/12/05 15:26:11;;;;;;;13.60;10.80;;;;;;;;;;4992906;28;93325;-72
2021/12/05 15:28:39;;;;;;;13.23;11.93;;;;;;;;;;4997926;28;94228;-71
2021/12/05 15:31:06;;;;;;;14.77;13.48;;;;;;;;;;4990276;28;94978;-71
2021/12/05 15:33:37;;;;;;;19.48;15.00;;;;;;;;;;5005950;28;96350;-71
2021/12/05 15:36:03;;;;;;;14.10;12.35;;;;;;;;;;4993189;28;92688;-71
2021/12/05 15:38:31;;;;;;;15.38;12.80;;;;;;;;;;4991267;28;93253;-71
2021/12/05 15:41:02;;;;;;;12.85;11.60;;;;;;;;;;4992697;28;93693;-71
2021/12/05 15:43:28;;;;;;;13.30;12.10;;;;;;;;;;4993428;27;92886;-73
2021/12/05 15:45:57;;;;;;;12.52;11.32;;;;;;;;;;4992789;28;94251;-72
2021/12/05 15:48:26;;;;;;;13.10;11.88;;;;;;;;;;4992747;28;93423;-72
2021/12/05 15:50:53;;;;;;;12.18;11.07;;;;;;;;;;4992801;28;93052;-72
2021/12/05 15:53:20;;;;;;;13.13;11.93;;;;;;;;;;4992368;28;93291;-71
2021/12/05 15:55:50;;;;;;;23.30;12.23;;;;;;;;;;4994209;28;98144;-71
2021/12/05 15:58:31;;;;;;;11.10;10.02;;;;;;;;;;4992602;28;96403;-71
2021/12/05 16:01:03;;;;;;;13.93;12.52;;;;;;;;;;4975156;28;94194;-70
2021/12/05 16:03:38;;;;;;;13.80;12.45;;;;;;;;;;4988659;28;92573;-71
2021/12/05 16:06:04;;;;;;;14.25;12.68;;;;;;;;;;4985248;28;94956;-71
2021/12/05 16:08:31;;;;;;;14.40;12.77;;;;;;;;;;4993029;28;94352;-71
2021/12/05 16:10:59;;;;;;;14.23;12.88;;;;;;;;;;4986755;28;92564;-69
2021/12/05 16:13:38;;;;;;;14.35;12.73;;;;;;;;;;4989969;28;94001;-70
2021/12/05 16:16:10;;;;;;;14.88;13.43;;;;;;;;;;4992985;28;93986;-71
2021/12/05 16:18:38;;;;;;;14.05;12.48;;;;;;;;;;4995590;28;93116;-71
2021/12/05 16:21:14;;;;;;;13.73;12.43;;;;;;;;;;4988936;28;97252;-71
2021/12/05 16:23:40;;;;;;;13.90;12.50;;;;;;;;;;4997404;28;92875;-71
2021/12/05 16:26:09;;;;;;;15.40;13.95;;;;;;;;;;5012790;28;93941;-71
2021/12/05 16:28:43;;;;;;;15.63;14.02;;;;;;;;;;4991173;28;94791;-71
2021/12/05 16:31:12;;;;;;;12.82;11.57;;;;;;;;;;4991860;28;92874;-71
2021/12/05 16:33:40;;;;;;;22.33;13.48;;;;;;;;;;4993145;28;95160;-71
2021/12/05 16:36:07;;;;;;;19.80;14.57;;;;;;;;;;4991024;28;93497;-71
2021/12/05 16:38:38;;;;;;;17.48;14.95;;;;;;;;;;5005765;28;92498;-71
2021/12/05 16:41:10;;;;;;;18.15;16.42;;;;;;;;;;4990596;28;94186;-70
2021/12/05 16:43:38;;;;;;;20.77;17.90;;;;;;;;;;4991704;28;92532;-71
2021/12/05 16:46:07;;;;;;;19.25;15.75;;;;;;;;;;4978084;28;95007;-71
2021/12/05 16:48:35;;;;;;;19.23;15.57;;;;;;;;;;4992182;28;96069;-71
2021/12/05 16:51:16;;;;;;;19.08;17.08;;;;;;;;;;4998163;28;92581;-71
2021/12/05 16:53:46;;;;;;;19.33;16.45;;;;;;;;;;4991416;28;94715;-71
2021/12/05 16:56:17;;;;;;;20.10;17.98;;;;;;;;;;4991977;28;94133;-71
2021/12/05 16:58:44;;;;;;;20.52;18.33;;;;;;;;;;4987907;28;94364;-71
2021/12/05 17:01:15;;;;;;;17.88;16.05;;;;;;;;;;4996833;28;94247;-71
2021/12/05 17:03:44;;;;;;;18.25;16.20;;;;;;;;;;4994066;28;93610;-71
2021/12/05 17:06:11;;;;;;;23.67;16.30;;;;;;;;;;5000644;28;93549;-71
2021/12/05 17:08:45;;;;;;;20.20;15.32;;;;;;;;;;4994420;28;93861;-72
2021/12/05 17:11:16;;;;;;;17.13;15.32;;;;;;;;;;4990874;28;95881;-71
2021/12/05 17:13:47;;;;;;;28.73;14.85;;;;;;;;;;4998371;28;95803;-72
2021/12/05 17:16:15;;;;;;;17.50;15.60;;;;;;;;;;4990105;28;93435;-71
2021/12/05 17:18:44;;;;;;;22.42;16.70;;;;;;;;;;4992949;28;93556;-72
2021/12/05 17:21:18;;;;;;;19.20;17.00;;;;;;;;;;5002017;28;93297;-72
2021/12/05 17:23:52;;;;;;;19.30;15.18;;;;;;;;;;4994458;28;94281;-71
2021/12/05 17:26:20;;;;;;;16.88;15.25;;;;;;;;;;4994623;28;94310;-71
2021/12/05 17:28:52;;;;;;;17.23;15.43;;;;;;;;;;4998157;28;93774;-71
2021/12/05 17:31:24;;;;;;;18.70;16.80;;;;;;;;;;4995440;28;92541;-71
2021/12/05 17:33:52;;;;;;;15.65;14.18;;;;;;;;;;4996452;28;94364;-70
2021/12/05 17:36:21;;;;;;;16.30;14.50;;;;;;;;;;4992389;28;96887;-71
2021/12/05 17:38:49;;;;;;;13.38;11.98;;;;;;;;;;4990594;28;93511;-71
2021/12/05 17:41:16;;;;;;;18.33;14.38;;;;;;;;;;4995842;28;94272;-72
2021/12/05 17:43:42;;;;;;;14.90;13.50;;;;;;;;;;4990877;28;93537;-71
2021/12/05 17:46:09;;;;;;;16.05;14.55;;;;;;;;;;4992868;28;94037;-71
2021/12/05 17:48:35;;;;;;;14.82;13.23;;;;;;;;;;4995707;28;93873;-71
2021/12/05 17:51:05;;;;;;;18.98;15.75;;;;;;;;;;4996507;28;92677;-71
2021/12/05 17:53:33;;;;;;;21.95;18.52;;;;;;;;;;4990634;28;95333;-71
2021/12/05 17:56:06;;;;;;;18.83;16.42;;;;;;;;;;4996356;28;94415;-71
2021/12/05 17:58:51;;;;;;;18.60;16.77;;;;;;;;;;4992900;28;93046;-71
2021/12/05 18:04:05;;;;;;;14.80;13.27;;;;;;;;;;4993639;28;94780;-71
2021/12/05 18:06:32;;;;;;;17.50;15.80;;;;;;;;;;4995772;28;92623;-71
2021/12/05 18:09:00;;;;;;;20.77;17.92;;;;;;;;;;4998175;28;93356;-71
2021/12/05 18:11:26;;;;;;;18.77;16.65;;;;;;;;;;4994837;28;92532;-71
2021/12/05 18:13:56;;;;;;;17.20;15.40;;;;;;;;;;4994633;28;93877;-71
2021/12/05 18:16:24;;;;;;;21.65;15.23;;;;;;;;;;4995575;28;93574;-71
2021/12/05 18:18:52;;;;;;;17.48;15.20;;;;;;;;;;4996000;28;92604;-71
2021/12/05 18:21:18;;;;;;;17.95;16.15;;;;;;;;;;4996417;28;92648;-71
2021/12/05 18:23:45;;;;;;;19.88;17.00;;;;;;;;;;4979904;28;93354;-71
2021/12/05 18:26:12;;;;;;;23.42;16.42;;;;;;;;;;4992626;28;95455;-71
2021/12/05 18:28:39;;;;;;;17.85;16.02;;;;;;;;;;4998444;28;96265;-71
2021/12/05 18:31:06;;;;;;;22.42;19.50;;;;;;;;;;4996140;28;92492;-71
2021/12/05 18:33:33;;;;;;;20.52;18.25;;;;;;;;;;4993261;28;93099;-71
2021/12/05 18:36:00;;;;;;;23.15;18.40;;;;;;;;;;4993910;28;93231;-71
2021/12/05 18:38:26;;;;;;;25.45;16.98;;;;;;;;;;5005495;28;92915;-71
2021/12/05 18:40:56;;;;;;;21.65;17.30;;;;;;;;;;5012331;28;93317;-71
2021/12/05 18:43:26;;;;;;;21.83;17.10;;;;;;;;;;5010499;28;93528;-71
2021/12/05 18:45:54;;;;;;;21.27;17.38;;;;;;;;;;5007374;28;94020;-71
2021/12/05 18:48:21;;;;;;;20.85;17.83;;;;;;;;;;4993990;28;93876;-70
2021/12/05 18:50:48;;;;;;;20.88;16.70;;;;;;;;;;4990737;28;96622;-71
2021/12/05 18:53:16;;;;;;;21.15;16.33;;;;;;;;;;4995087;28;97106;-71
2021/12/05 18:55:45;;;;;;;18.58;16.55;;;;;;;;;;4997086;28;94076;-71
2021/12/05 18:58:12;;;;;;;22.27;18.08;;;;;;;;;;5010820;28;92918;-70
2021/12/05 19:04:21;;;;;;;19.45;16.90;;;;;;;;;;5011377;28;95172;-71
2021/12/05 19:06:18;;;;;;;23.90;20.05;;;;;;;;;;4989307;28;93009;-71
2021/12/05 19:11:43;;;;;;;27.20;19.52;;;;;;;;;;5012677;28;93453;-71
2021/12/05 19:14:18;;;;;;;25.60;17.40;;;;;;;;;;5014140;28;92534;-70
2021/12/05 19:16:49;;;;;;;21.70;19.55;;;;;;;;;;5010991;28;97578;-70
2021/12/05 19:19:17;;;;;;;19.95;17.67;;;;;;;;;;5010749;28;92615;-71
2021/12/05 19:21:43;;;;;;;18.50;15.73;;;;;;;;;;4994291;28;94054;-70
2021/12/05 19:24:10;;;;;;;23.55;20.23;;;;;;;;;;4991506;28;93894;-70
2021/12/05 19:26:36;;;;;;;20.88;18.15;;;;;;;;;;5002020;28;93049;-70
2021/12/05 19:29:03;;;;;;;28.02;20.35;;;;;;;;;;4990903;28;94337;-71
2021/12/05 19:31:30;;;;;;;26.13;20.98;;;;;;;;;;5012171;28;94795;-71
2021/12/05 19:33:56;;;;;;;21.88;19.60;;;;;;;;;;4994856;28;92139;-69
2021/12/05 19:36:26;;;;;;;22.73;18.58;;;;;;;;;;4998435;28;94032;-70
2021/12/05 19:38:53;;;;;;;23.48;20.10;;;;;;;;;;5003304;28;94425;-71
2021/12/05 19:41:20;;;;;;;27.30;20.13;;;;;;;;;;5001283;28;94908;-70
2021/12/05 19:43:46;;;;;;;29.02;21.65;;;;;;;;;;4992860;28;93909;-71
2021/12/05 19:46:13;;;;;;;28.23;22.00;;;;;;;;;;4992670;28;92819;-71